createdAt,value
2019-02-06T00:00:12.072Z,46.29
2019-02-06T00:01:39.497Z,46.29
2019-02-06T00:02:41.713Z,46.31
2019-02-06T00:03:43.922Z,46.29
2019-02-06T00:04:46.130Z,46.30
2019-02-06T00:05:48.340Z,46.29
2019-02-06T00:06:50.566Z,46.30
2019-02-06T00:07:52.774Z,46.30
2019-02-06T00:08:58.010Z,46.27
2019-02-06T00:10:00.329Z,46.29
2019-02-06T00:11:02.668Z,46.29
2019-02-06T00:12:05.500Z,46.30
2019-02-06T00:13:07.830Z,46.31
2019-02-06T00:14:10.032Z,46.31
2019-02-06T00:15:12.271Z,46.31
2019-02-06T00:16:14.481Z,46.31
2019-02-06T00:17:16.765Z,46.31
2019-02-06T00:18:19.003Z,46.32
2019-02-06T00:19:21.197Z,46.35
2019-02-06T00:20:23.439Z,46.29
2019-02-06T00:21:25.641Z,46.32
2019-02-06T00:22:28.249Z,46.30
2019-02-06T00:23:30.466Z,46.33
2019-02-06T00:24:35.420Z,46.32
2019-02-06T00:25:37.662Z,46.30
2019-02-06T00:26:39.867Z,46.29
2019-02-06T00:27:42.077Z,46.32
2019-02-06T00:28:44.279Z,46.36
2019-02-06T00:29:46.809Z,46.33
2019-02-06T00:30:49.047Z,46.36
2019-02-06T00:31:51.397Z,46.35
2019-02-06T00:32:53.564Z,46.35
2019-02-06T00:33:56.291Z,46.35
2019-02-06T00:34:58.531Z,46.30
2019-02-06T00:36:00.765Z,46.33
2019-02-06T00:37:02.979Z,46.33
2019-02-06T00:38:05.629Z,46.33
2019-02-06T00:39:07.849Z,46.33
2019-02-06T00:40:10.041Z,46.33
2019-02-06T00:41:12.271Z,46.32
2019-02-06T00:42:14.487Z,46.37
2019-02-06T00:43:16.686Z,46.33
2019-02-06T00:44:19.187Z,46.31
2019-02-06T00:45:21.401Z,46.33
2019-02-06T00:46:23.657Z,46.33
2019-02-06T00:47:26.011Z,46.33
2019-02-06T00:48:28.232Z,46.29
2019-02-06T00:49:30.453Z,46.33
2019-02-06T00:50:34.411Z,46.34
2019-02-06T00:51:36.674Z,46.35
2019-02-06T00:52:38.885Z,46.34
2019-02-06T00:53:44.138Z,46.33
2019-02-06T00:54:48.423Z,46.36
2019-02-06T00:55:50.951Z,46.38
2019-02-06T00:56:53.493Z,46.31
2019-02-06T00:57:55.703Z,46.33
2019-02-06T00:58:57.913Z,46.37
2019-02-06T01:00:02.238Z,46.33
2019-02-06T01:01:04.485Z,46.34
2019-02-06T01:02:06.679Z,46.35
2019-02-06T01:03:08.887Z,46.39
2019-02-06T01:04:11.103Z,46.38
2019-02-06T01:05:13.311Z,46.37
2019-02-06T01:06:15.529Z,46.36
2019-02-06T01:07:18.081Z,46.36
2019-02-06T01:08:20.306Z,46.41
2019-02-06T01:09:22.507Z,46.33
2019-02-06T01:10:24.705Z,46.35
2019-02-06T01:11:27.099Z,46.37
2019-02-06T01:12:29.369Z,46.37
2019-02-06T01:13:31.569Z,46.38
2019-02-06T01:14:33.777Z,46.43
2019-02-06T01:15:35.975Z,46.43
2019-02-06T01:16:38.324Z,46.38
2019-02-06T01:17:40.853Z,46.37
2019-02-06T01:18:43.062Z,46.35
2019-02-06T01:19:45.270Z,46.36
2019-02-06T01:20:47.482Z,46.37
2019-02-06T01:21:49.702Z,46.38
2019-02-06T01:22:51.939Z,46.42
2019-02-06T01:23:54.149Z,46.35
2019-02-06T01:24:56.369Z,46.37
2019-02-06T01:25:58.585Z,46.36
2019-02-06T01:27:00.779Z,46.43
2019-02-06T01:28:03.200Z,46.40
2019-02-06T01:29:05.609Z,46.39
2019-02-06T01:30:08.147Z,46.38
2019-02-06T01:31:29.304Z,46.37
2019-02-06T01:32:31.515Z,46.40
2019-02-06T01:33:33.756Z,46.37
2019-02-06T01:34:35.957Z,46.40
2019-02-06T01:35:49.267Z,46.40
2019-02-06T01:36:42.039Z,46.36
2019-02-06T01:37:44.292Z,46.38
2019-02-06T01:38:46.531Z,46.35
2019-02-06T01:39:48.743Z,46.37
2019-02-06T01:40:50.969Z,46.38
2019-02-06T01:41:53.579Z,46.40
2019-02-06T01:42:55.786Z,46.40
2019-02-06T01:43:58.018Z,46.41
2019-02-06T01:45:00.325Z,46.39
2019-02-06T01:46:02.639Z,46.39
2019-02-06T01:47:04.843Z,46.43
2019-02-06T01:48:07.057Z,46.39
2019-02-06T01:49:09.372Z,46.34
2019-02-06T01:50:12.275Z,46.37
2019-02-06T01:51:14.473Z,46.39
2019-02-06T01:52:17.155Z,46.41
2019-02-06T01:53:19.365Z,46.39
2019-02-06T01:54:21.586Z,46.38
2019-02-06T01:55:23.788Z,46.38
2019-02-06T01:56:25.997Z,46.40
2019-02-06T01:57:28.326Z,46.40
2019-02-06T01:58:30.543Z,46.38
2019-02-06T01:59:32.772Z,46.38
2019-02-06T02:00:34.976Z,46.39
2019-02-06T02:01:37.189Z,46.38
2019-02-06T02:02:39.702Z,46.43
2019-02-06T02:03:41.907Z,46.44
2019-02-06T02:04:44.145Z,46.40
2019-02-06T02:05:46.343Z,46.39
2019-02-06T02:06:51.766Z,46.39
2019-02-06T02:07:53.980Z,46.41
2019-02-06T02:09:02.376Z,46.37
2019-02-06T02:10:04.602Z,46.38
2019-02-06T02:11:06.809Z,46.41
2019-02-06T02:12:12.031Z,46.40
2019-02-06T02:13:14.217Z,46.34
2019-02-06T02:14:16.426Z,46.39
2019-02-06T02:15:18.854Z,46.41
2019-02-06T02:16:21.055Z,46.42
2019-02-06T02:17:23.267Z,46.34
2019-02-06T02:18:25.806Z,46.35
2019-02-06T02:19:28.022Z,46.37
2019-02-06T02:20:30.469Z,46.36
2019-02-06T02:21:32.692Z,46.39
2019-02-06T02:22:36.024Z,46.36
2019-02-06T02:23:38.220Z,46.39
2019-02-06T02:24:40.444Z,46.36
2019-02-06T02:25:42.846Z,46.33
2019-02-06T02:26:45.059Z,46.29
2019-02-06T02:27:47.266Z,46.35
2019-02-06T02:28:49.565Z,46.33
2019-02-06T02:29:51.763Z,46.37
2019-02-06T02:30:55.114Z,46.41
2019-02-06T02:31:57.334Z,46.36
2019-02-06T02:33:00.705Z,46.36
2019-02-06T02:34:02.938Z,46.36
2019-02-06T02:35:05.153Z,46.36
2019-02-06T02:36:15.742Z,46.32
2019-02-06T02:37:11.228Z,46.27
2019-02-06T02:38:15.084Z,46.29
2019-02-06T02:39:17.298Z,46.31
2019-02-06T02:40:19.532Z,46.35
2019-02-06T02:41:21.728Z,46.33
2019-02-06T02:42:24.097Z,46.29
2019-02-06T02:43:26.343Z,46.32
2019-02-06T02:44:28.549Z,46.33
2019-02-06T02:45:30.915Z,46.36
2019-02-06T02:46:33.108Z,46.33
2019-02-06T02:47:35.330Z,46.36
2019-02-06T02:48:37.846Z,46.35
2019-02-06T02:49:40.077Z,46.28
2019-02-06T02:50:42.289Z,46.30
2019-02-06T02:51:44.589Z,46.31
2019-02-06T02:52:47.019Z,46.32
2019-02-06T02:53:49.206Z,46.36
2019-02-06T02:54:51.432Z,46.30
2019-02-06T02:55:53.639Z,46.33
2019-02-06T02:56:55.826Z,46.26
2019-02-06T02:57:58.181Z,46.30
2019-02-06T02:59:00.806Z,46.39
2019-02-06T03:00:03.432Z,46.32
2019-02-06T03:01:27.584Z,46.40
2019-02-06T03:02:47.804Z,46.36
2019-02-06T03:04:18.281Z,46.31
2019-02-06T03:05:23.651Z,46.31
2019-02-06T03:06:28.132Z,46.26
2019-02-06T03:07:31.209Z,46.25
2019-02-06T03:08:33.335Z,46.24
2019-02-06T03:09:35.538Z,46.25
2019-02-06T03:10:37.781Z,46.25
2019-02-06T03:11:40.228Z,46.24
2019-02-06T03:12:42.450Z,46.29
2019-02-06T03:13:44.654Z,46.22
2019-02-06T03:14:46.846Z,46.26
2019-02-06T03:15:49.088Z,46.25
2019-02-06T03:16:51.280Z,46.25
2019-02-06T03:17:53.475Z,46.22
2019-02-06T03:18:55.678Z,46.22
2019-02-06T03:20:00.568Z,46.21
2019-02-06T03:21:02.824Z,46.28
2019-02-06T03:22:05.028Z,46.30
2019-02-06T03:23:07.637Z,46.22
2019-02-06T03:24:09.848Z,46.19
2019-02-06T03:25:12.054Z,46.20
2019-02-06T03:26:14.275Z,46.21
2019-02-06T03:27:16.486Z,46.22
2019-02-06T03:28:18.707Z,46.20
2019-02-06T03:29:20.899Z,46.22
2019-02-06T03:30:23.120Z,46.20
2019-02-06T03:31:25.361Z,46.20
2019-02-06T03:32:27.573Z,46.14
2019-02-06T03:33:30.044Z,46.22
2019-02-06T03:34:32.255Z,46.20
2019-02-06T03:35:34.481Z,46.25
2019-02-06T03:36:40.420Z,46.18
2019-02-06T03:37:40.522Z,46.20
2019-02-06T03:38:42.844Z,46.15
2019-02-06T03:39:45.042Z,46.25
2019-02-06T03:40:47.269Z,46.17
2019-02-06T03:41:49.487Z,46.16
2019-02-06T03:42:51.695Z,46.17
2019-02-06T03:43:54.100Z,46.15
2019-02-06T03:44:56.457Z,46.18
2019-02-06T03:45:58.680Z,46.16
2019-02-06T03:47:00.899Z,46.15
2019-02-06T03:48:03.109Z,46.16
2019-02-06T03:49:05.341Z,46.17
2019-02-06T03:50:07.567Z,46.25
2019-02-06T03:51:09.782Z,46.13
2019-02-06T03:52:11.991Z,46.17
2019-02-06T03:53:14.293Z,46.18
2019-02-06T03:54:16.805Z,46.14
2019-02-06T03:55:19.303Z,46.14
2019-02-06T03:56:21.809Z,46.13
2019-02-06T03:57:24.013Z,46.14
2019-02-06T03:58:26.216Z,46.24
2019-02-06T03:59:28.451Z,46.18
2019-02-06T04:00:32.227Z,46.15
2019-02-06T04:01:34.464Z,46.22
2019-02-06T04:02:36.668Z,46.15
2019-02-06T04:03:38.884Z,46.17
2019-02-06T04:04:41.152Z,46.16
2019-02-06T04:05:43.802Z,46.16
2019-02-06T04:06:55.131Z,46.16
2019-02-06T04:07:49.878Z,46.16
2019-02-06T04:08:52.095Z,46.18
2019-02-06T04:09:54.308Z,46.21
2019-02-06T04:10:56.546Z,46.21
2019-02-06T04:11:58.759Z,46.20
2019-02-06T04:13:01.092Z,46.18
2019-02-06T04:14:03.324Z,46.19
2019-02-06T04:15:05.535Z,46.18
2019-02-06T04:16:08.165Z,46.11
2019-02-06T04:17:10.385Z,46.10
2019-02-06T04:18:12.671Z,46.03
2019-02-06T04:19:14.913Z,46.06
2019-02-06T04:20:17.340Z,46.12
2019-02-06T04:21:19.539Z,46.17
2019-02-06T04:22:21.759Z,46.14
2019-02-06T04:23:23.948Z,46.18
2019-02-06T04:24:26.161Z,46.10
2019-02-06T04:25:28.375Z,46.13
2019-02-06T04:26:30.771Z,46.09
2019-02-06T04:27:33.287Z,46.07
2019-02-06T04:28:35.518Z,46.13
2019-02-06T04:29:37.757Z,46.16
2019-02-06T04:30:39.979Z,46.13
2019-02-06T04:31:42.212Z,46.09
2019-02-06T04:32:44.429Z,46.13
2019-02-06T04:33:46.676Z,46.16
2019-02-06T04:34:48.901Z,46.11
2019-02-06T04:35:54.097Z,46.13
2019-02-06T04:37:06.237Z,46.17
2019-02-06T04:38:00.167Z,46.18
2019-02-06T04:39:04.291Z,46.17
2019-02-06T04:40:06.509Z,46.14
2019-02-06T04:41:08.734Z,46.19
2019-02-06T04:42:10.936Z,46.19
2019-02-06T04:43:13.139Z,46.13
2019-02-06T04:44:15.351Z,46.15
2019-02-06T04:45:17.560Z,46.09
2019-02-06T04:46:19.800Z,46.13
2019-02-06T04:47:22.027Z,46.10
2019-02-06T04:48:24.241Z,46.11
2019-02-06T04:49:26.748Z,46.13
2019-02-06T04:50:28.955Z,46.13
2019-02-06T04:51:31.188Z,46.03
2019-02-06T04:52:33.405Z,46.07
2019-02-06T04:53:35.612Z,46.08
2019-02-06T04:54:37.833Z,46.04
2019-02-06T04:55:40.032Z,46.05
2019-02-06T04:56:42.252Z,46.05
2019-02-06T04:57:44.473Z,46.14
2019-02-06T04:58:46.683Z,46.06
2019-02-06T04:59:49.322Z,46.07
2019-02-06T05:00:51.531Z,46.07
2019-02-06T05:01:53.840Z,46.06
2019-02-06T05:02:57.837Z,46.09
2019-02-06T05:04:00.044Z,46.07
2019-02-06T05:05:02.258Z,46.10
2019-02-06T05:06:04.475Z,46.03
2019-02-06T05:07:18.370Z,46.02
2019-02-06T05:08:13.298Z,46.10
2019-02-06T05:09:15.498Z,46.08
2019-02-06T05:10:17.695Z,46.11
2019-02-06T05:11:20.305Z,46.13
2019-02-06T05:12:22.528Z,46.11
2019-02-06T05:13:24.747Z,46.13
2019-02-06T05:14:29.914Z,46.03
2019-02-06T05:15:32.128Z,46.06
2019-02-06T05:16:34.331Z,46.05
2019-02-06T05:17:36.547Z,46.07
2019-02-06T05:18:38.873Z,46.08
2019-02-06T05:19:41.104Z,46.17
2019-02-06T05:20:43.314Z,46.06
2019-02-06T05:21:45.643Z,46.07
2019-02-06T05:22:48.142Z,46.06
2019-02-06T05:23:50.447Z,46.13
2019-02-06T05:24:52.758Z,46.14
2019-02-06T05:25:54.962Z,46.15
2019-02-06T05:26:57.192Z,46.13
2019-02-06T05:27:59.394Z,46.10
2019-02-06T05:29:01.748Z,46.05
2019-02-06T05:30:03.967Z,46.09
2019-02-06T05:31:06.176Z,46.09
2019-02-06T05:32:08.398Z,46.13
2019-02-06T05:33:10.910Z,46.10
2019-02-06T05:34:13.132Z,46.13
2019-02-06T05:35:15.324Z,46.13
2019-02-06T05:36:17.525Z,46.12
2019-02-06T05:37:31.789Z,46.16
2019-02-06T05:38:25.218Z,46.15
2019-02-06T05:39:27.548Z,46.13
2019-02-06T05:40:29.775Z,46.12
2019-02-06T05:41:31.994Z,46.05
2019-02-06T05:42:34.239Z,46.03
2019-02-06T05:43:36.927Z,46.06
2019-02-06T05:44:39.130Z,46.03
2019-02-06T05:45:41.333Z,46.08
2019-02-06T05:46:43.869Z,46.08
2019-02-06T05:47:46.083Z,46.03
2019-02-06T05:48:49.367Z,46.03
2019-02-06T05:49:51.842Z,46.06
2019-02-06T05:50:54.047Z,46.04
2019-02-06T05:51:56.284Z,46.05
2019-02-06T05:52:58.522Z,46.02
2019-02-06T05:54:01.104Z,45.99
2019-02-06T05:55:04.801Z,45.97
2019-02-06T05:56:07.180Z,45.99
2019-02-06T05:57:09.408Z,45.93
2019-02-06T05:58:11.609Z,45.97
2019-02-06T05:59:14.037Z,45.96
2019-02-06T06:00:16.174Z,45.94
2019-02-06T06:01:19.966Z,45.92
2019-02-06T06:02:24.657Z,45.92
2019-02-06T06:03:26.850Z,45.92
2019-02-06T06:04:29.049Z,45.94
2019-02-06T06:05:31.547Z,45.93
2019-02-06T06:06:33.764Z,45.92
2019-02-06T06:07:44.498Z,45.86
2019-02-06T06:08:39.871Z,45.85
2019-02-06T06:09:42.080Z,45.88
2019-02-06T06:10:44.283Z,45.93
2019-02-06T06:11:46.486Z,45.90
2019-02-06T06:12:48.783Z,45.90
2019-02-06T06:13:51.045Z,45.88
2019-02-06T06:14:55.556Z,45.89
2019-02-06T06:15:58.048Z,45.92
2019-02-06T06:17:00.261Z,45.92
2019-02-06T06:18:02.473Z,45.95
2019-02-06T06:19:04.879Z,45.99
2019-02-06T06:20:07.107Z,46.05
2019-02-06T06:21:09.328Z,46.02
2019-02-06T06:22:11.553Z,46.04
2019-02-06T06:23:13.760Z,46.05
2019-02-06T06:24:16.000Z,46.08
2019-02-06T06:25:18.233Z,46.12
2019-02-06T06:26:20.996Z,46.10
2019-02-06T06:27:23.236Z,46.13
2019-02-06T06:28:25.488Z,46.16
2019-02-06T06:29:27.680Z,46.14
2019-02-06T06:30:29.898Z,46.19
2019-02-06T06:31:32.106Z,46.19
2019-02-06T06:32:34.323Z,46.20
2019-02-06T06:33:36.541Z,46.18
2019-02-06T06:34:38.752Z,46.19
2019-02-06T06:35:40.960Z,46.25
2019-02-06T06:36:43.562Z,46.22
2019-02-06T06:37:57.158Z,46.23
2019-02-06T06:38:52.697Z,46.27
2019-02-06T06:39:54.914Z,46.24
2019-02-06T06:40:57.130Z,46.25
2019-02-06T06:42:01.439Z,46.21
2019-02-06T06:43:03.649Z,46.30
2019-02-06T06:44:05.902Z,46.29
2019-02-06T06:45:08.097Z,46.26
2019-02-06T06:46:10.319Z,46.27
2019-02-06T06:47:12.536Z,46.31
2019-02-06T06:48:14.967Z,46.28
2019-02-06T06:49:17.213Z,46.29
2019-02-06T06:50:19.499Z,46.27
2019-02-06T06:51:21.735Z,46.25
2019-02-06T06:52:23.953Z,46.33
2019-02-06T06:53:26.173Z,46.27
2019-02-06T06:54:29.378Z,46.30
2019-02-06T06:55:31.700Z,46.31
2019-02-06T06:56:33.905Z,46.29
2019-02-06T06:57:36.118Z,46.29
2019-02-06T06:58:38.678Z,46.29
2019-02-06T06:59:41.289Z,46.30
2019-02-06T07:00:43.499Z,46.34
2019-02-06T07:01:45.725Z,46.31
2019-02-06T07:02:47.927Z,46.30
2019-02-06T07:03:50.169Z,46.31
2019-02-06T07:04:52.401Z,46.30
2019-02-06T07:05:54.618Z,46.32
2019-02-06T07:06:56.828Z,46.33
2019-02-06T07:08:09.322Z,46.30
2019-02-06T07:09:03.407Z,46.34
2019-02-06T07:10:05.937Z,46.36
2019-02-06T07:11:08.139Z,46.34
2019-02-06T07:12:10.349Z,46.33
2019-02-06T07:13:12.572Z,46.35
2019-02-06T07:14:16.581Z,46.34
2019-02-06T07:15:18.787Z,46.37
2019-02-06T07:16:20.993Z,46.38
2019-02-06T07:17:23.196Z,46.38
2019-02-06T07:18:25.643Z,46.34
2019-02-06T07:19:27.869Z,46.38
2019-02-06T07:20:30.073Z,46.39
2019-02-06T07:21:32.683Z,46.37
2019-02-06T07:22:34.878Z,46.35
2019-02-06T07:23:37.105Z,46.36
2019-02-06T07:24:39.341Z,46.34
2019-02-06T07:25:41.557Z,46.35
2019-02-06T07:26:43.768Z,46.37
2019-02-06T07:27:46.023Z,46.38
2019-02-06T07:28:48.288Z,46.39
2019-02-06T07:29:50.590Z,46.36
2019-02-06T07:30:52.784Z,46.34
2019-02-06T07:31:55.289Z,46.37
2019-02-06T07:32:57.520Z,46.36
2019-02-06T07:33:59.721Z,46.39
2019-02-06T07:35:02.205Z,46.40
2019-02-06T07:36:04.438Z,46.38
2019-02-06T07:37:06.633Z,46.37
2019-02-06T07:38:13.295Z,46.36
2019-02-06T07:39:15.518Z,46.35
2019-02-06T07:40:17.783Z,46.36
2019-02-06T07:41:19.985Z,46.37
2019-02-06T07:42:22.191Z,46.37
2019-02-06T07:43:26.181Z,46.37
2019-02-06T07:44:28.350Z,46.38
2019-02-06T07:45:30.573Z,46.37
2019-02-06T07:46:32.792Z,46.38
2019-02-06T07:47:35.019Z,46.35
2019-02-06T07:48:37.227Z,46.36
2019-02-06T07:49:39.457Z,46.36
2019-02-06T07:50:43.035Z,46.35
2019-02-06T07:51:45.196Z,46.34
2019-02-06T07:52:47.503Z,46.33
2019-02-06T07:53:50.057Z,46.35
2019-02-06T07:54:53.365Z,46.33
2019-02-06T07:55:55.593Z,46.32
2019-02-06T07:56:57.803Z,46.31
2019-02-06T07:58:00.039Z,46.34
2019-02-06T07:59:02.260Z,46.33
2019-02-06T08:00:05.076Z,46.33
2019-02-06T08:01:08.835Z,46.33
2019-02-06T08:02:11.050Z,46.32
2019-02-06T08:03:13.263Z,46.37
2019-02-06T08:04:15.481Z,46.36
2019-02-06T08:05:17.999Z,46.37
2019-02-06T08:06:20.239Z,46.36
2019-02-06T08:07:25.448Z,46.36
2019-02-06T08:08:35.653Z,46.36
2019-02-06T08:09:31.533Z,46.35
2019-02-06T08:10:33.762Z,46.37
2019-02-06T08:11:36.010Z,46.35
2019-02-06T08:12:38.277Z,46.35
2019-02-06T08:13:40.796Z,46.34
2019-02-06T08:14:42.999Z,46.36
2019-02-06T08:15:45.515Z,46.37
2019-02-06T08:16:53.729Z,46.34
2019-02-06T08:17:55.940Z,46.33
2019-02-06T08:18:58.334Z,46.35
2019-02-06T08:20:00.534Z,46.37
2019-02-06T08:21:02.739Z,46.36
2019-02-06T08:22:04.994Z,46.36
2019-02-06T08:23:07.220Z,46.36
2019-02-06T08:24:09.417Z,46.34
2019-02-06T08:25:11.611Z,46.34
2019-02-06T08:26:13.873Z,46.34
2019-02-06T08:27:16.109Z,46.34
2019-02-06T08:28:18.841Z,46.36
2019-02-06T08:29:21.140Z,46.35
2019-02-06T08:30:23.352Z,46.35
2019-02-06T08:31:25.551Z,46.35
2019-02-06T08:32:27.814Z,46.33
2019-02-06T08:33:30.161Z,46.34
2019-02-06T08:34:32.433Z,46.34
2019-02-06T08:35:34.646Z,46.34
2019-02-06T08:36:36.879Z,46.32
2019-02-06T08:37:39.242Z,46.35
2019-02-06T08:38:47.662Z,46.35
2019-02-06T08:39:48.575Z,46.35
2019-02-06T08:40:50.789Z,46.34
2019-02-06T08:41:52.982Z,46.34
2019-02-06T08:42:55.374Z,46.34
2019-02-06T08:43:57.718Z,46.32
2019-02-06T08:44:59.943Z,46.32
2019-02-06T08:46:02.180Z,46.33
2019-02-06T08:47:04.388Z,46.33
2019-02-06T08:48:08.751Z,46.34
2019-02-06T08:49:11.030Z,46.32
2019-02-06T08:50:13.503Z,46.34
2019-02-06T08:51:15.714Z,46.33
2019-02-06T08:52:17.942Z,46.32
2019-02-06T08:53:20.212Z,46.32
2019-02-06T08:54:22.420Z,46.32
2019-02-06T08:55:24.635Z,46.33
2019-02-06T08:56:26.837Z,46.33
2019-02-06T08:57:29.077Z,46.33
2019-02-06T08:58:31.298Z,46.32
2019-02-06T08:59:36.167Z,46.31
2019-02-06T09:00:37.384Z,46.32
2019-02-06T09:01:39.560Z,46.32
2019-02-06T09:02:42.022Z,46.32
2019-02-06T09:03:44.264Z,46.32
2019-02-06T09:04:55.587Z,46.29
2019-02-06T09:05:50.327Z,46.31
2019-02-06T09:06:52.550Z,46.31
2019-02-06T09:07:54.761Z,46.31
2019-02-06T09:08:59.806Z,46.31
2019-02-06T09:10:00.872Z,46.33
2019-02-06T09:11:03.063Z,46.32
2019-02-06T09:12:05.757Z,46.32
2019-02-06T09:13:07.967Z,46.33
2019-02-06T09:14:10.201Z,46.33
2019-02-06T09:15:12.419Z,46.33
2019-02-06T09:16:17.147Z,46.33
2019-02-06T09:17:19.466Z,46.32
2019-02-06T09:18:21.787Z,46.32
2019-02-06T09:19:24.014Z,46.29
2019-02-06T09:20:26.206Z,46.30
2019-02-06T09:21:28.416Z,46.31
2019-02-06T09:22:30.659Z,46.34
2019-02-06T09:23:33.312Z,46.33
2019-02-06T09:24:35.539Z,46.32
2019-02-06T09:25:37.746Z,46.34
2019-02-06T09:26:39.953Z,46.31
2019-02-06T09:27:42.158Z,46.32
2019-02-06T09:28:44.376Z,46.34
2019-02-06T09:29:46.630Z,46.34
2019-02-06T09:30:48.879Z,46.33
2019-02-06T09:31:51.065Z,46.33
2019-02-06T09:32:56.587Z,46.33
2019-02-06T09:33:59.225Z,46.35
2019-02-06T09:35:01.455Z,46.34
2019-02-06T09:36:03.679Z,46.36
2019-02-06T09:37:05.884Z,46.34
2019-02-06T09:38:08.093Z,46.35
2019-02-06T09:39:12.004Z,46.37
2019-02-06T09:40:14.188Z,46.37
2019-02-06T09:41:16.410Z,46.37
2019-02-06T09:42:21.886Z,46.36
2019-02-06T09:43:24.113Z,46.39
2019-02-06T09:44:26.317Z,46.37
2019-02-06T09:45:28.958Z,46.39
2019-02-06T09:46:31.169Z,46.37
2019-02-06T09:47:33.372Z,46.37
2019-02-06T09:48:35.577Z,46.37
2019-02-06T09:49:37.781Z,46.39
2019-02-06T09:50:40.005Z,46.42
2019-02-06T09:51:42.202Z,46.43
2019-02-06T09:52:44.418Z,46.38
2019-02-06T09:53:46.615Z,46.41
2019-02-06T09:54:48.836Z,46.40
2019-02-06T09:55:53.271Z,46.40
2019-02-06T09:56:55.213Z,46.43
2019-02-06T09:57:57.446Z,46.42
2019-02-06T09:58:59.897Z,46.41
2019-02-06T10:00:02.078Z,46.40
2019-02-06T10:01:04.338Z,46.40
2019-02-06T10:02:09.443Z,46.40
2019-02-06T10:03:10.425Z,46.41
2019-02-06T10:04:12.638Z,46.41
2019-02-06T10:05:14.859Z,46.40
2019-02-06T10:06:17.411Z,46.41
2019-02-06T10:07:20.045Z,46.39
2019-02-06T10:08:22.257Z,46.38
2019-02-06T10:09:24.466Z,46.39
2019-02-06T10:10:26.681Z,46.39
2019-02-06T10:11:28.899Z,46.39
2019-02-06T10:12:31.325Z,46.39
2019-02-06T10:13:33.535Z,46.41
2019-02-06T10:14:35.801Z,46.39
2019-02-06T10:15:38.007Z,46.39
2019-02-06T10:16:40.248Z,46.37
2019-02-06T10:17:42.856Z,46.38
2019-02-06T10:18:45.058Z,46.35
2019-02-06T10:19:47.279Z,46.35
2019-02-06T10:20:49.491Z,46.36
2019-02-06T10:21:53.737Z,46.37
2019-02-06T10:22:55.669Z,46.37
2019-02-06T10:23:57.881Z,46.39
2019-02-06T10:25:00.124Z,46.36
2019-02-06T10:26:02.488Z,46.38
2019-02-06T10:27:04.837Z,46.36
2019-02-06T10:28:07.455Z,46.38
2019-02-06T10:29:09.747Z,46.36
2019-02-06T10:30:14.361Z,46.39
2019-02-06T10:31:17.983Z,46.40
2019-02-06T10:32:20.219Z,46.44
2019-02-06T10:33:22.419Z,46.40
2019-02-06T10:34:24.714Z,46.39
2019-02-06T10:35:26.932Z,46.44
2019-02-06T10:36:29.246Z,46.43
2019-02-06T10:37:31.482Z,46.44
2019-02-06T10:38:33.687Z,46.45
2019-02-06T10:39:36.106Z,46.45
2019-02-06T10:40:38.331Z,46.46
2019-02-06T10:41:40.534Z,46.46
2019-02-06T10:42:42.766Z,46.49
2019-02-06T10:43:44.998Z,46.46
2019-02-06T10:44:47.335Z,46.47
2019-02-06T10:45:49.516Z,46.45
2019-02-06T10:46:51.931Z,46.48
2019-02-06T10:47:54.153Z,46.48
2019-02-06T10:48:56.363Z,46.45
2019-02-06T10:49:58.777Z,46.50
2019-02-06T10:51:00.988Z,46.48
2019-02-06T10:52:03.186Z,46.50
2019-02-06T10:53:05.432Z,46.49
2019-02-06T10:54:07.652Z,46.46
2019-02-06T10:55:09.848Z,46.50
2019-02-06T10:56:12.064Z,46.50
2019-02-06T10:57:14.360Z,46.49
2019-02-06T10:58:16.675Z,46.50
2019-02-06T10:59:18.923Z,46.53
2019-02-06T11:00:23.435Z,46.51
2019-02-06T11:01:26.061Z,46.48
2019-02-06T11:02:28.292Z,46.48
2019-02-06T11:03:30.511Z,46.50
2019-02-06T11:04:32.928Z,46.48
2019-02-06T11:05:35.145Z,46.48
2019-02-06T11:06:39.378Z,46.50
2019-02-06T11:07:41.592Z,46.50
2019-02-06T11:08:43.854Z,46.48
2019-02-06T11:09:46.592Z,46.48
2019-02-06T11:10:48.876Z,46.50
2019-02-06T11:11:51.498Z,46.47
2019-02-06T11:12:53.676Z,46.47
2019-02-06T11:13:55.913Z,46.48
2019-02-06T11:14:58.088Z,46.48
2019-02-06T11:16:00.515Z,46.46
2019-02-06T11:17:02.716Z,46.47
2019-02-06T11:18:04.922Z,46.46
2019-02-06T11:19:07.179Z,46.48
2019-02-06T11:20:09.384Z,46.46
2019-02-06T11:21:11.580Z,46.46
2019-02-06T11:22:14.093Z,46.47
2019-02-06T11:23:16.285Z,46.46
2019-02-06T11:24:18.542Z,46.45
2019-02-06T11:25:20.765Z,46.45
2019-02-06T11:26:22.963Z,46.47
2019-02-06T11:27:28.192Z,46.48
2019-02-06T11:28:30.407Z,46.50
2019-02-06T11:29:32.668Z,46.49
2019-02-06T11:30:35.056Z,46.50
2019-02-06T11:31:37.261Z,46.49
2019-02-06T11:32:39.473Z,46.50
2019-02-06T11:33:41.902Z,46.49
2019-02-06T11:34:44.154Z,46.48
2019-02-06T11:35:46.363Z,46.50
2019-02-06T11:36:48.672Z,46.51
2019-02-06T11:37:50.905Z,46.51
2019-02-06T11:38:53.121Z,46.54
2019-02-06T11:39:57.937Z,46.52
2019-02-06T11:40:59.219Z,46.52
2019-02-06T11:42:01.423Z,46.52
2019-02-06T11:43:03.696Z,46.52
2019-02-06T11:44:06.414Z,46.52
2019-02-06T11:45:09.054Z,46.51
2019-02-06T11:46:11.257Z,46.49
2019-02-06T11:47:13.486Z,46.50
2019-02-06T11:48:15.700Z,46.50
2019-02-06T11:49:19.542Z,46.50
2019-02-06T11:50:28.335Z,46.50
2019-02-06T11:51:30.539Z,46.50
2019-02-06T11:52:32.752Z,46.49
2019-02-06T11:53:34.969Z,46.48
2019-02-06T11:54:37.168Z,46.50
2019-02-06T11:55:39.416Z,46.49
2019-02-06T11:56:41.928Z,46.48
2019-02-06T11:57:44.145Z,46.53
2019-02-06T11:58:46.508Z,46.47
2019-02-06T11:59:48.712Z,46.51
2019-02-06T12:01:09.015Z,46.49
2019-02-06T12:02:11.530Z,46.51
2019-02-06T12:03:13.755Z,46.49
2019-02-06T12:04:15.951Z,46.51
2019-02-06T12:05:18.173Z,46.51
2019-02-06T12:06:20.401Z,46.51
2019-02-06T12:07:22.682Z,46.50
2019-02-06T12:08:24.890Z,46.51
2019-02-06T12:09:27.307Z,46.53
2019-02-06T12:10:29.712Z,46.54
2019-02-06T12:11:31.967Z,46.56
2019-02-06T12:12:34.177Z,46.55
2019-02-06T12:13:36.413Z,46.49
2019-02-06T12:14:39.713Z,46.54
2019-02-06T12:15:41.929Z,46.55
2019-02-06T12:16:44.177Z,46.56
2019-02-06T12:17:46.655Z,46.56
2019-02-06T12:18:48.845Z,46.57
2019-02-06T12:19:51.059Z,46.58
2019-02-06T12:20:53.660Z,46.58
2019-02-06T12:21:55.866Z,46.61
2019-02-06T12:22:58.066Z,46.62
2019-02-06T12:24:00.270Z,46.63
2019-02-06T12:25:02.479Z,46.62
2019-02-06T12:26:04.683Z,46.61
2019-02-06T12:27:06.921Z,46.61
2019-02-06T12:28:09.126Z,46.62
2019-02-06T12:29:11.347Z,46.64
2019-02-06T12:30:13.552Z,46.64
2019-02-06T12:31:16.054Z,46.64
2019-02-06T12:32:18.294Z,46.64
2019-02-06T12:33:20.507Z,46.66
2019-02-06T12:34:22.719Z,46.64
2019-02-06T12:35:25.052Z,46.63
2019-02-06T12:36:27.256Z,46.63
2019-02-06T12:37:29.494Z,46.65
2019-02-06T12:38:31.697Z,46.65
2019-02-06T12:39:33.908Z,46.65
2019-02-06T12:40:36.118Z,46.67
2019-02-06T12:41:38.643Z,46.67
2019-02-06T12:42:42.941Z,46.68
2019-02-06T12:43:44.822Z,46.67
2019-02-06T12:44:47.047Z,46.67
2019-02-06T12:45:49.261Z,46.66
2019-02-06T12:46:51.530Z,46.67
2019-02-06T12:47:53.930Z,46.63
2019-02-06T12:48:56.164Z,46.66
2019-02-06T12:49:58.350Z,46.62
2019-02-06T12:51:02.172Z,46.63
2019-02-06T12:52:04.376Z,46.67
2019-02-06T12:53:06.575Z,46.68
2019-02-06T12:54:08.772Z,46.68
2019-02-06T12:55:10.982Z,46.69
2019-02-06T12:56:13.189Z,46.68
2019-02-06T12:57:18.224Z,46.69
2019-02-06T12:58:20.447Z,46.70
2019-02-06T12:59:22.654Z,46.67
2019-02-06T13:00:24.882Z,46.70
2019-02-06T13:01:27.543Z,46.70
2019-02-06T13:02:32.267Z,46.70
2019-02-06T13:03:34.498Z,46.71
2019-02-06T13:04:36.720Z,46.71
2019-02-06T13:05:38.909Z,46.70
2019-02-06T13:06:41.122Z,46.72
2019-02-06T13:07:43.361Z,46.73
2019-02-06T13:08:45.604Z,46.73
2019-02-06T13:09:47.948Z,46.72
2019-02-06T13:10:50.121Z,46.73
2019-02-06T13:11:52.637Z,46.74
2019-02-06T13:12:58.094Z,46.74
2019-02-06T13:14:00.389Z,46.76
2019-02-06T13:15:02.598Z,46.76
2019-02-06T13:16:04.917Z,46.74
2019-02-06T13:17:07.135Z,46.72
2019-02-06T13:18:09.354Z,46.76
2019-02-06T13:19:11.709Z,46.76
2019-02-06T13:20:13.991Z,46.75
2019-02-06T13:21:16.182Z,46.76
2019-02-06T13:22:18.393Z,46.76
2019-02-06T13:23:20.913Z,46.75
2019-02-06T13:24:23.168Z,46.76
2019-02-06T13:25:25.384Z,46.76
2019-02-06T13:26:27.609Z,46.76